sensor_id;sensor_type;location;lat;lon;timestamp;P1;durP1;ratioP1;P2;durP2;ratioP2
15354;SDS011;7777;52.254;9.618;2023-07-31T00:01:54;4.27;;;1.53;;
15354;SDS011;7777;52.254;9.618;2023-07-31T00:04:20;2.93;;;1.37;;
15354;SDS011;7777;52.254;9.618;2023-07-31T00:06:45;6.53;;;1.30;;
15354;SDS011;7777;52.254;9.618;2023-07-31T00:09:11;2.30;;;1.07;;
15354;SDS011;7777;52.254;9.618;2023-07-31T00:11:37;3.30;;;1.57;;
15354;SDS011;7777;52.254;9.618;2023-07-31T00:14:02;3.77;;;1.20;;
15354;SDS011;7777;52.254;9.618;2023-07-31T00:16:29;2.57;;;1.37;;
15354;SDS011;7777;52.254;9.618;2023-07-31T00:18:54;2.43;;;1.20;;
15354;SDS011;7777;52.254;9.618;2023-07-31T00:21:20;3.33;;;1.30;;
15354;SDS011;7777;52.254;9.618;2023-07-31T00:23:46;2.87;;;1.27;;
15354;SDS011;7777;52.254;9.618;2023-07-31T00:26:11;4.77;;;1.53;;
15354;SDS011;7777;52.254;9.618;2023-07-31T00:28:37;3.03;;;1.23;;
15354;SDS011;7777;52.254;9.618;2023-07-31T00:31:03;3.60;;;1.23;;
15354;SDS011;7777;52.254;9.618;2023-07-31T00:33:30;3.37;;;1.30;;
15354;SDS011;7777;52.254;9.618;2023-07-31T00:35:56;2.87;;;1.73;;
15354;SDS011;7777;52.254;9.618;2023-07-31T00:38:22;2.30;;;1.37;;
15354;SDS011;7777;52.254;9.618;2023-07-31T00:40:48;3.40;;;1.70;;
15354;SDS011;7777;52.254;9.618;2023-07-31T00:43:13;2.87;;;1.40;;
15354;SDS011;7777;52.254;9.618;2023-07-31T00:45:39;3.80;;;1.50;;
15354;SDS011;7777;52.254;9.618;2023-07-31T00:48:05;3.87;;;1.47;;
15354;SDS011;7777;52.254;9.618;2023-07-31T00:50:32;2.03;;;1.20;;
15354;SDS011;7777;52.254;9.618;2023-07-31T00:53:00;3.33;;;1.43;;
15354;SDS011;7777;52.254;9.618;2023-07-31T00:55:26;2.20;;;1.00;;
15354;SDS011;7777;52.254;9.618;2023-07-31T00:57:51;2.50;;;1.20;;
15354;SDS011;7777;52.254;9.618;2023-07-31T01:00:20;1.60;;;1.20;;
15354;SDS011;7777;52.254;9.618;2023-07-31T01:02:46;2.70;;;1.37;;
15354;SDS011;7777;52.254;9.618;2023-07-31T01:05:14;2.87;;;1.30;;
15354;SDS011;7777;52.254;9.618;2023-07-31T01:12:51;2.37;;;0.93;;
15354;SDS011;7777;52.254;9.618;2023-07-31T01:15:19;1.50;;;0.70;;
15354;SDS011;7777;52.254;9.618;2023-07-31T01:17:45;2.63;;;1.10;;
15354;SDS011;7777;52.254;9.618;2023-07-31T01:20:18;1.80;;;1.00;;
15354;SDS011;7777;52.254;9.618;2023-07-31T01:28:47;3.27;;;0.90;;
15354;SDS011;7777;52.254;9.618;2023-07-31T01:31:28;1.40;;;0.70;;
15354;SDS011;7777;52.254;9.618;2023-07-31T01:33:56;0.97;;;0.60;;
15354;SDS011;7777;52.254;9.618;2023-07-31T01:36:26;1.50;;;0.63;;
15354;SDS011;7777;52.254;9.618;2023-07-31T01:38:57;0.80;;;0.50;;
15354;SDS011;7777;52.254;9.618;2023-07-31T01:41:27;1.10;;;0.70;;
15354;SDS011;7777;52.254;9.618;2023-07-31T01:43:53;2.70;;;0.90;;
15354;SDS011;7777;52.254;9.618;2023-07-31T01:46:18;0.70;;;0.40;;
15354;SDS011;7777;52.254;9.618;2023-07-31T01:48:44;0.73;;;0.40;;
15354;SDS011;7777;52.254;9.618;2023-07-31T01:51:10;0.53;;;0.50;;
15354;SDS011;7777;52.254;9.618;2023-07-31T01:53:36;2.83;;;0.50;;
15354;SDS011;7777;52.254;9.618;2023-07-31T01:56:01;0.50;;;0.40;;
15354;SDS011;7777;52.254;9.618;2023-07-31T01:58:27;1.60;;;0.50;;
15354;SDS011;7777;52.254;9.618;2023-07-31T02:00:53;1.50;;;0.57;;
15354;SDS011;7777;52.254;9.618;2023-07-31T02:03:19;1.33;;;0.50;;
15354;SDS011;7777;52.254;9.618;2023-07-31T02:05:45;0.60;;;0.60;;
15354;SDS011;7777;52.254;9.618;2023-07-31T02:08:12;0.70;;;0.50;;
15354;SDS011;7777;52.254;9.618;2023-07-31T02:10:38;1.23;;;0.50;;
15354;SDS011;7777;52.254;9.618;2023-07-31T02:13:04;0.47;;;0.40;;
15354;SDS011;7777;52.254;9.618;2023-07-31T02:15:30;0.47;;;0.47;;
15354;SDS011;7777;52.254;9.618;2023-07-31T02:17:56;0.77;;;0.60;;
15354;SDS011;7777;52.254;9.618;2023-07-31T02:20:22;1.10;;;0.63;;
15354;SDS011;7777;52.254;9.618;2023-07-31T02:22:48;0.60;;;0.50;;
15354;SDS011;7777;52.254;9.618;2023-07-31T02:25:14;0.60;;;0.40;;
15354;SDS011;7777;52.254;9.618;2023-07-31T02:27:40;0.47;;;0.47;;
15354;SDS011;7777;52.254;9.618;2023-07-31T02:30:06;2.63;;;0.73;;
15354;SDS011;7777;52.254;9.618;2023-07-31T02:32:32;1.67;;;0.67;;
15354;SDS011;7777;52.254;9.618;2023-07-31T02:34:58;0.73;;;0.63;;
15354;SDS011;7777;52.254;9.618;2023-07-31T02:37:24;1.30;;;0.73;;
15354;SDS011;7777;52.254;9.618;2023-07-31T02:39:51;4.70;;;0.90;;
15354;SDS011;7777;52.254;9.618;2023-07-31T02:42:16;4.30;;;0.63;;
15354;SDS011;7777;52.254;9.618;2023-07-31T02:44:42;0.60;;;0.60;;
15354;SDS011;7777;52.254;9.618;2023-07-31T02:47:08;1.67;;;0.70;;
15354;SDS011;7777;52.254;9.618;2023-07-31T02:49:34;0.70;;;0.70;;
15354;SDS011;7777;52.254;9.618;2023-07-31T02:51:59;1.13;;;0.60;;
15354;SDS011;7777;52.254;9.618;2023-07-31T02:54:25;1.07;;;0.60;;
15354;SDS011;7777;52.254;9.618;2023-07-31T02:56:51;1.20;;;0.70;;
15354;SDS011;7777;52.254;9.618;2023-07-31T02:59:17;0.70;;;0.67;;
15354;SDS011;7777;52.254;9.618;2023-07-31T03:01:43;4.40;;;0.90;;
15354;SDS011;7777;52.254;9.618;2023-07-31T03:04:09;1.93;;;0.53;;
15354;SDS011;7777;52.254;9.618;2023-07-31T03:06:35;1.27;;;0.90;;
15354;SDS011;7777;52.254;9.618;2023-07-31T03:09:00;1.20;;;0.77;;
15354;SDS011;7777;52.254;9.618;2023-07-31T03:11:26;1.57;;;0.80;;
15354;SDS011;7777;52.254;9.618;2023-07-31T03:13:52;1.07;;;0.80;;
15354;SDS011;7777;52.254;9.618;2023-07-31T03:16:18;2.03;;;0.67;;
15354;SDS011;7777;52.254;9.618;2023-07-31T03:18:44;0.83;;;0.63;;
15354;SDS011;7777;52.254;9.618;2023-07-31T03:21:10;1.93;;;1.07;;
15354;SDS011;7777;52.254;9.618;2023-07-31T03:23:37;1.87;;;1.00;;
15354;SDS011;7777;52.254;9.618;2023-07-31T03:26:07;1.17;;;0.80;;
15354;SDS011;7777;52.254;9.618;2023-07-31T03:28:33;1.60;;;1.00;;
15354;SDS011;7777;52.254;9.618;2023-07-31T03:30:58;1.40;;;0.73;;
15354;SDS011;7777;52.254;9.618;2023-07-31T03:33:25;1.60;;;0.97;;
15354;SDS011;7777;52.254;9.618;2023-07-31T03:35:51;1.97;;;0.70;;
15354;SDS011;7777;52.254;9.618;2023-07-31T03:38:17;0.83;;;0.70;;
15354;SDS011;7777;52.254;9.618;2023-07-31T03:40:43;2.33;;;1.17;;
15354;SDS011;7777;52.254;9.618;2023-07-31T03:43:09;3.00;;;0.70;;
15354;SDS011;7777;52.254;9.618;2023-07-31T03:45:35;4.00;;;1.00;;
15354;SDS011;7777;52.254;9.618;2023-07-31T03:48:00;0.93;;;0.80;;
15354;SDS011;7777;52.254;9.618;2023-07-31T03:50:27;2.90;;;1.00;;
15354;SDS011;7777;52.254;9.618;2023-07-31T03:52:55;0.97;;;0.70;;
15354;SDS011;7777;52.254;9.618;2023-07-31T03:55:20;1.77;;;0.90;;
15354;SDS011;7777;52.254;9.618;2023-07-31T03:57:49;6.30;;;0.90;;
15354;SDS011;7777;52.254;9.618;2023-07-31T04:00:15;0.93;;;0.77;;
15354;SDS011;7777;52.254;9.618;2023-07-31T04:02:40;1.07;;;0.70;;
15354;SDS011;7777;52.254;9.618;2023-07-31T04:05:06;0.90;;;0.60;;
15354;SDS011;7777;52.254;9.618;2023-07-31T04:07:32;3.30;;;0.93;;
15354;SDS011;7777;52.254;9.618;2023-07-31T04:09:59;0.53;;;0.53;;
15354;SDS011;7777;52.254;9.618;2023-07-31T04:12:25;2.80;;;0.70;;
15354;SDS011;7777;52.254;9.618;2023-07-31T04:14:51;3.90;;;1.13;;
15354;SDS011;7777;52.254;9.618;2023-07-31T04:17:19;1.23;;;0.60;;
15354;SDS011;7777;52.254;9.618;2023-07-31T04:19:45;2.83;;;0.60;;
15354;SDS011;7777;52.254;9.618;2023-07-31T04:22:11;1.07;;;0.70;;
15354;SDS011;7777;52.254;9.618;2023-07-31T04:24:37;1.13;;;0.70;;
15354;SDS011;7777;52.254;9.618;2023-07-31T04:27:02;0.57;;;0.43;;
15354;SDS011;7777;52.254;9.618;2023-07-31T04:29:28;0.97;;;0.53;;
15354;SDS011;7777;52.254;9.618;2023-07-31T04:31:54;4.27;;;0.53;;
15354;SDS011;7777;52.254;9.618;2023-07-31T04:34:20;2.80;;;0.40;;
15354;SDS011;7777;52.254;9.618;2023-07-31T04:36:46;0.50;;;0.30;;
15354;SDS011;7777;52.254;9.618;2023-07-31T04:39:11;2.57;;;0.40;;
15354;SDS011;7777;52.254;9.618;2023-07-31T04:41:37;1.80;;;0.37;;
15354;SDS011;7777;52.254;9.618;2023-07-31T04:44:03;0.40;;;0.40;;
15354;SDS011;7777;52.254;9.618;2023-07-31T04:46:29;0.77;;;0.50;;
15354;SDS011;7777;52.254;9.618;2023-07-31T04:49:01;0.60;;;0.60;;
15354;SDS011;7777;52.254;9.618;2023-07-31T04:51:29;0.60;;;0.53;;
15354;SDS011;7777;52.254;9.618;2023-07-31T04:53:56;2.77;;;0.70;;
15354;SDS011;7777;52.254;9.618;2023-07-31T04:56:21;1.53;;;1.00;;
15354;SDS011;7777;52.254;9.618;2023-07-31T04:58:47;2.13;;;1.23;;
15354;SDS011;7777;52.254;9.618;2023-07-31T05:01:13;3.87;;;1.40;;
15354;SDS011;7777;52.254;9.618;2023-07-31T05:03:39;2.60;;;1.73;;
15354;SDS011;7777;52.254;9.618;2023-07-31T05:06:04;2.83;;;1.90;;
15354;SDS011;7777;52.254;9.618;2023-07-31T05:08:36;2.33;;;1.90;;
15354;SDS011;7777;52.254;9.618;2023-07-31T05:11:02;3.43;;;2.33;;
15354;SDS011;7777;52.254;9.618;2023-07-31T05:13:28;4.30;;;2.50;;
15354;SDS011;7777;52.254;9.618;2023-07-31T05:15:54;3.63;;;2.27;;
15354;SDS011;7777;52.254;9.618;2023-07-31T05:18:20;7.17;;;2.97;;
15354;SDS011;7777;52.254;9.618;2023-07-31T05:20:45;4.93;;;2.67;;
15354;SDS011;7777;52.254;9.618;2023-07-31T05:23:11;6.40;;;3.13;;
15354;SDS011;7777;52.254;9.618;2023-07-31T05:25:39;4.80;;;3.00;;
15354;SDS011;7777;52.254;9.618;2023-07-31T05:28:07;5.93;;;3.50;;
15354;SDS011;7777;52.254;9.618;2023-07-31T05:30:33;5.77;;;3.50;;
15354;SDS011;7777;52.254;9.618;2023-07-31T05:32:59;6.60;;;3.90;;
15354;SDS011;7777;52.254;9.618;2023-07-31T05:35:28;6.17;;;4.33;;
15354;SDS011;7777;52.254;9.618;2023-07-31T05:37:53;6.07;;;4.40;;
15354;SDS011;7777;52.254;9.618;2023-07-31T05:40:25;7.30;;;4.00;;
15354;SDS011;7777;52.254;9.618;2023-07-31T05:42:58;5.00;;;4.10;;
15354;SDS011;7777;52.254;9.618;2023-07-31T05:45:26;6.87;;;4.47;;
15354;SDS011;7777;52.254;9.618;2023-07-31T05:47:52;5.20;;;4.37;;
15354;SDS011;7777;52.254;9.618;2023-07-31T05:50:18;6.73;;;4.10;;
15354;SDS011;7777;52.254;9.618;2023-07-31T05:52:43;8.90;;;5.23;;
15354;SDS011;7777;52.254;9.618;2023-07-31T05:55:09;9.37;;;5.00;;
15354;SDS011;7777;52.254;9.618;2023-07-31T05:57:35;7.60;;;4.73;;
15354;SDS011;7777;52.254;9.618;2023-07-31T06:00:02;8.20;;;4.90;;
15354;SDS011;7777;52.254;9.618;2023-07-31T06:02:27;6.77;;;4.60;;
15354;SDS011;7777;52.254;9.618;2023-07-31T06:04:53;6.17;;;4.23;;
15354;SDS011;7777;52.254;9.618;2023-07-31T06:07:19;6.27;;;4.07;;
15354;SDS011;7777;52.254;9.618;2023-07-31T06:09:48;5.90;;;4.17;;
15354;SDS011;7777;52.254;9.618;2023-07-31T06:12:14;8.50;;;4.60;;
15354;SDS011;7777;52.254;9.618;2023-07-31T06:14:42;6.90;;;3.77;;
15354;SDS011;7777;52.254;9.618;2023-07-31T06:17:08;6.37;;;3.60;;
15354;SDS011;7777;52.254;9.618;2023-07-31T06:19:34;6.07;;;3.47;;
15354;SDS011;7777;52.254;9.618;2023-07-31T06:21:59;5.03;;;4.10;;
15354;SDS011;7777;52.254;9.618;2023-07-31T06:24:25;5.30;;;3.87;;
15354;SDS011;7777;52.254;9.618;2023-07-31T06:26:51;5.90;;;4.20;;
15354;SDS011;7777;52.254;9.618;2023-07-31T06:29:17;7.33;;;3.87;;
15354;SDS011;7777;52.254;9.618;2023-07-31T06:31:42;7.17;;;4.33;;
15354;SDS011;7777;52.254;9.618;2023-07-31T06:34:08;5.03;;;3.80;;
15354;SDS011;7777;52.254;9.618;2023-07-31T06:36:34;6.60;;;3.90;;
15354;SDS011;7777;52.254;9.618;2023-07-31T06:38:59;8.33;;;4.30;;
15354;SDS011;7777;52.254;9.618;2023-07-31T06:41:25;8.43;;;5.23;;
15354;SDS011;7777;52.254;9.618;2023-07-31T06:43:51;7.50;;;5.37;;
15354;SDS011;7777;52.254;9.618;2023-07-31T06:46:16;10.47;;;6.50;;
15354;SDS011;7777;52.254;9.618;2023-07-31T06:48:42;11.10;;;6.27;;
15354;SDS011;7777;52.254;9.618;2023-07-31T06:51:08;9.13;;;6.00;;
15354;SDS011;7777;52.254;9.618;2023-07-31T06:53:34;11.03;;;6.67;;
15354;SDS011;7777;52.254;9.618;2023-07-31T06:55:59;12.40;;;7.23;;
15354;SDS011;7777;52.254;9.618;2023-07-31T06:58:26;19.53;;;7.93;;
15354;SDS011;7777;52.254;9.618;2023-07-31T07:00:52;9.30;;;7.63;;
15354;SDS011;7777;52.254;9.618;2023-07-31T07:03:18;15.07;;;8.03;;
15354;SDS011;7777;52.254;9.618;2023-07-31T07:05:44;12.77;;;8.00;;
15354;SDS011;7777;52.254;9.618;2023-07-31T07:08:09;13.10;;;8.13;;
15354;SDS011;7777;52.254;9.618;2023-07-31T07:10:35;14.07;;;8.87;;
15354;SDS011;7777;52.254;9.618;2023-07-31T07:13:01;15.47;;;8.60;;
15354;SDS011;7777;52.254;9.618;2023-07-31T07:15:27;12.47;;;7.50;;
15354;SDS011;7777;52.254;9.618;2023-07-31T07:17:53;12.73;;;7.63;;
15354;SDS011;7777;52.254;9.618;2023-07-31T07:20:19;15.10;;;7.67;;
15354;SDS011;7777;52.254;9.618;2023-07-31T07:22:45;12.07;;;8.10;;
15354;SDS011;7777;52.254;9.618;2023-07-31T07:25:11;13.53;;;7.90;;
15354;SDS011;7777;52.254;9.618;2023-07-31T07:27:36;13.70;;;7.80;;
15354;SDS011;7777;52.254;9.618;2023-07-31T07:30:02;12.80;;;7.73;;
15354;SDS011;7777;52.254;9.618;2023-07-31T07:32:28;13.70;;;7.63;;
15354;SDS011;7777;52.254;9.618;2023-07-31T07:34:55;14.37;;;7.50;;
15354;SDS011;7777;52.254;9.618;2023-07-31T07:37:21;16.37;;;7.63;;
15354;SDS011;7777;52.254;9.618;2023-07-31T07:39:47;12.70;;;7.10;;
15354;SDS011;7777;52.254;9.618;2023-07-31T07:42:12;15.13;;;7.03;;
15354;SDS011;7777;52.254;9.618;2023-07-31T07:44:38;13.80;;;7.50;;
15354;SDS011;7777;52.254;9.618;2023-07-31T07:47:04;16.53;;;7.23;;
15354;SDS011;7777;52.254;9.618;2023-07-31T07:49:33;9.93;;;6.13;;
15354;SDS011;7777;52.254;9.618;2023-07-31T07:52:00;9.77;;;6.20;;
15354;SDS011;7777;52.254;9.618;2023-07-31T07:54:27;11.30;;;5.57;;
15354;SDS011;7777;52.254;9.618;2023-07-31T07:56:52;7.93;;;5.33;;
15354;SDS011;7777;52.254;9.618;2023-07-31T07:59:18;8.63;;;5.53;;
15354;SDS011;7777;52.254;9.618;2023-07-31T08:01:44;16.10;;;5.57;;
15354;SDS011;7777;52.254;9.618;2023-07-31T08:04:10;8.70;;;5.60;;
15354;SDS011;7777;52.254;9.618;2023-07-31T08:06:35;9.43;;;5.17;;
15354;SDS011;7777;52.254;9.618;2023-07-31T08:09:01;10.57;;;5.33;;
15354;SDS011;7777;52.254;9.618;2023-07-31T08:11:31;9.27;;;5.87;;
15354;SDS011;7777;52.254;9.618;2023-07-31T08:14:00;14.13;;;5.90;;
15354;SDS011;7777;52.254;9.618;2023-07-31T08:16:26;9.87;;;5.63;;
15354;SDS011;7777;52.254;9.618;2023-07-31T08:18:51;12.20;;;5.63;;
15354;SDS011;7777;52.254;9.618;2023-07-31T08:21:17;9.13;;;5.00;;
15354;SDS011;7777;52.254;9.618;2023-07-31T08:23:43;15.17;;;6.30;;
15354;SDS011;7777;52.254;9.618;2023-07-31T08:26:14;11.30;;;5.37;;
15354;SDS011;7777;52.254;9.618;2023-07-31T08:28:41;13.93;;;5.67;;
15354;SDS011;7777;52.254;9.618;2023-07-31T08:31:07;20.30;;;6.37;;
15354;SDS011;7777;52.254;9.618;2023-07-31T08:33:32;12.27;;;5.83;;
15354;SDS011;7777;52.254;9.618;2023-07-31T08:35:58;7.90;;;5.00;;
15354;SDS011;7777;52.254;9.618;2023-07-31T08:38:25;14.33;;;5.17;;
15354;SDS011;7777;52.254;9.618;2023-07-31T08:40:51;11.43;;;5.07;;
15354;SDS011;7777;52.254;9.618;2023-07-31T08:43:17;8.40;;;4.67;;
15354;SDS011;7777;52.254;9.618;2023-07-31T08:45:44;13.53;;;5.80;;
15354;SDS011;7777;52.254;9.618;2023-07-31T08:48:10;9.33;;;5.07;;
15354;SDS011;7777;52.254;9.618;2023-07-31T08:50:37;10.03;;;5.20;;
15354;SDS011;7777;52.254;9.618;2023-07-31T08:53:03;7.60;;;4.43;;
15354;SDS011;7777;52.254;9.618;2023-07-31T08:55:29;10.43;;;5.23;;
15354;SDS011;7777;52.254;9.618;2023-07-31T08:57:57;6.83;;;4.37;;
15354;SDS011;7777;52.254;9.618;2023-07-31T09:00:28;13.43;;;4.73;;
15354;SDS011;7777;52.254;9.618;2023-07-31T09:05:28;10.53;;;4.63;;
15354;SDS011;7777;52.254;9.618;2023-07-31T09:07:56;13.20;;;4.77;;
15354;SDS011;7777;52.254;9.618;2023-07-31T09:10:23;5.90;;;3.20;;
15354;SDS011;7777;52.254;9.618;2023-07-31T09:12:50;6.70;;;3.47;;
15354;SDS011;7777;52.254;9.618;2023-07-31T09:15:17;5.10;;;3.13;;
15354;SDS011;7777;52.254;9.618;2023-07-31T09:17:43;5.07;;;3.03;;
15354;SDS011;7777;52.254;9.618;2023-07-31T09:20:13;5.30;;;3.33;;
15354;SDS011;7777;52.254;9.618;2023-07-31T09:22:46;5.00;;;3.27;;
15354;SDS011;7777;52.254;9.618;2023-07-31T09:25:23;5.13;;;3.10;;
15354;SDS011;7777;52.254;9.618;2023-07-31T09:30:19;8.13;;;3.00;;
15354;SDS011;7777;52.254;9.618;2023-07-31T09:32:46;4.20;;;2.10;;
15354;SDS011;7777;52.254;9.618;2023-07-31T09:35:18;4.70;;;2.30;;
15354;SDS011;7777;52.254;9.618;2023-07-31T09:37:59;4.67;;;2.23;;
15354;SDS011;7777;52.254;9.618;2023-07-31T09:40:35;3.23;;;2.33;;
15354;SDS011;7777;52.254;9.618;2023-07-31T09:43:06;4.23;;;2.13;;
15354;SDS011;7777;52.254;9.618;2023-07-31T09:45:35;3.33;;;2.27;;
15354;SDS011;7777;52.254;9.618;2023-07-31T09:48:10;2.90;;;1.60;;
15354;SDS011;7777;52.254;9.618;2023-07-31T09:50:37;5.93;;;1.80;;
15354;SDS011;7777;52.254;9.618;2023-07-31T09:53:06;3.77;;;1.97;;
15354;SDS011;7777;52.254;9.618;2023-07-31T09:55:33;3.80;;;2.23;;
15354;SDS011;7777;52.254;9.618;2023-07-31T09:58:05;2.67;;;1.80;;
15354;SDS011;7777;52.254;9.618;2023-07-31T10:00:34;3.70;;;2.30;;
15354;SDS011;7777;52.254;9.618;2023-07-31T10:03:04;3.17;;;1.93;;
15354;SDS011;7777;52.254;9.618;2023-07-31T10:05:36;2.73;;;1.73;;
15354;SDS011;7777;52.254;9.618;2023-07-31T10:08:06;3.77;;;2.17;;
15354;SDS011;7777;52.254;9.618;2023-07-31T10:10:35;3.77;;;1.87;;
15354;SDS011;7777;52.254;9.618;2023-07-31T10:13:01;11.73;;;2.53;;
15354;SDS011;7777;52.254;9.618;2023-07-31T10:15:29;3.57;;;2.07;;
15354;SDS011;7777;52.254;9.618;2023-07-31T10:17:55;4.00;;;2.10;;
15354;SDS011;7777;52.254;9.618;2023-07-31T10:20:23;7.80;;;2.93;;
15354;SDS011;7777;52.254;9.618;2023-07-31T10:22:50;3.17;;;2.40;;
15354;SDS011;7777;52.254;9.618;2023-07-31T10:25:16;4.23;;;2.50;;
15354;SDS011;7777;52.254;9.618;2023-07-31T10:27:44;5.63;;;2.27;;
15354;SDS011;7777;52.254;9.618;2023-07-31T10:30:12;2.67;;;1.93;;
15354;SDS011;7777;52.254;9.618;2023-07-31T10:32:43;3.73;;;2.47;;
15354;SDS011;7777;52.254;9.618;2023-07-31T10:35:10;5.10;;;2.70;;
15354;SDS011;7777;52.254;9.618;2023-07-31T10:37:41;3.63;;;2.03;;
15354;SDS011;7777;52.254;9.618;2023-07-31T10:40:17;5.27;;;2.57;;
15354;SDS011;7777;52.254;9.618;2023-07-31T10:42:55;3.43;;;2.20;;
15354;SDS011;7777;52.254;9.618;2023-07-31T10:45:25;2.97;;;2.40;;
15354;SDS011;7777;52.254;9.618;2023-07-31T10:48:14;4.57;;;2.63;;
15354;SDS011;7777;52.254;9.618;2023-07-31T10:50:48;3.50;;;2.03;;
15354;SDS011;7777;52.254;9.618;2023-07-31T10:53:23;3.57;;;2.23;;
15354;SDS011;7777;52.254;9.618;2023-07-31T10:56:00;3.50;;;2.33;;
15354;SDS011;7777;52.254;9.618;2023-07-31T10:58:26;3.97;;;2.30;;
15354;SDS011;7777;52.254;9.618;2023-07-31T11:00:56;4.10;;;2.00;;
15354;SDS011;7777;52.254;9.618;2023-07-31T11:03:25;4.80;;;2.60;;
15354;SDS011;7777;52.254;9.618;2023-07-31T11:05:53;3.80;;;2.17;;
15354;SDS011;7777;52.254;9.618;2023-07-31T11:08:32;3.57;;;2.23;;
15354;SDS011;7777;52.254;9.618;2023-07-31T11:13:42;4.80;;;2.60;;
15354;SDS011;7777;52.254;9.618;2023-07-31T11:16:10;4.00;;;2.10;;
15354;SDS011;7777;52.254;9.618;2023-07-31T11:18:45;5.17;;;2.40;;
15354;SDS011;7777;52.254;9.618;2023-07-31T11:21:14;3.47;;;2.30;;
15354;SDS011;7777;52.254;9.618;2023-07-31T11:23:41;4.00;;;2.53;;
15354;SDS011;7777;52.254;9.618;2023-07-31T11:26:12;3.13;;;2.37;;
15354;SDS011;7777;52.254;9.618;2023-07-31T11:28:38;4.13;;;2.50;;
15354;SDS011;7777;52.254;9.618;2023-07-31T11:31:04;3.43;;;2.13;;
15354;SDS011;7777;52.254;9.618;2023-07-31T11:33:30;5.20;;;2.50;;
15354;SDS011;7777;52.254;9.618;2023-07-31T11:35:56;4.50;;;2.00;;
15354;SDS011;7777;52.254;9.618;2023-07-31T11:38:26;4.50;;;2.43;;
15354;SDS011;7777;52.254;9.618;2023-07-31T11:40:56;4.10;;;2.27;;
15354;SDS011;7777;52.254;9.618;2023-07-31T11:43:24;5.37;;;2.70;;
15354;SDS011;7777;52.254;9.618;2023-07-31T11:45:53;3.27;;;2.20;;
15354;SDS011;7777;52.254;9.618;2023-07-31T11:48:24;2.97;;;2.20;;
15354;SDS011;7777;52.254;9.618;2023-07-31T11:50:53;4.73;;;2.37;;
15354;SDS011;7777;52.254;9.618;2023-07-31T11:53:27;4.60;;;2.47;;
15354;SDS011;7777;52.254;9.618;2023-07-31T11:56:02;2.97;;;2.10;;
15354;SDS011;7777;52.254;9.618;2023-07-31T11:58:30;3.90;;;2.30;;
15354;SDS011;7777;52.254;9.618;2023-07-31T12:00:58;4.23;;;2.27;;
15354;SDS011;7777;52.254;9.618;2023-07-31T12:03:25;3.53;;;2.60;;
15354;SDS011;7777;52.254;9.618;2023-07-31T12:05:52;2.70;;;1.63;;
15354;SDS011;7777;52.254;9.618;2023-07-31T12:08:20;4.90;;;2.40;;
15354;SDS011;7777;52.254;9.618;2023-07-31T12:10:49;3.40;;;1.60;;
15354;SDS011;7777;52.254;9.618;2023-07-31T12:13:20;3.10;;;2.07;;
15354;SDS011;7777;52.254;9.618;2023-07-31T12:15:54;4.00;;;1.70;;
15354;SDS011;7777;52.254;9.618;2023-07-31T12:18:22;2.73;;;1.53;;
15354;SDS011;7777;52.254;9.618;2023-07-31T12:20:54;3.17;;;1.67;;
15354;SDS011;7777;52.254;9.618;2023-07-31T12:23:25;2.20;;;1.40;;
15354;SDS011;7777;52.254;9.618;2023-07-31T12:26:12;2.20;;;1.47;;
15354;SDS011;7777;52.254;9.618;2023-07-31T12:28:47;5.83;;;1.50;;
15354;SDS011;7777;52.254;9.618;2023-07-31T12:31:15;2.03;;;1.13;;
15354;SDS011;7777;52.254;9.618;2023-07-31T12:33:43;1.80;;;1.33;;
15354;SDS011;7777;52.254;9.618;2023-07-31T12:36:14;3.00;;;1.60;;
15354;SDS011;7777;52.254;9.618;2023-07-31T12:38:48;1.90;;;1.10;;
15354;SDS011;7777;52.254;9.618;2023-07-31T12:41:16;1.90;;;1.00;;
15354;SDS011;7777;52.254;9.618;2023-07-31T12:43:43;1.63;;;1.20;;
15354;SDS011;7777;52.254;9.618;2023-07-31T12:46:10;3.47;;;1.20;;
15354;SDS011;7777;52.254;9.618;2023-07-31T12:48:36;1.43;;;1.07;;
15354;SDS011;7777;52.254;9.618;2023-07-31T12:51:03;3.50;;;1.37;;
15354;SDS011;7777;52.254;9.618;2023-07-31T12:53:29;1.40;;;1.07;;
15354;SDS011;7777;52.254;9.618;2023-07-31T12:55:55;2.73;;;0.90;;
15354;SDS011;7777;52.254;9.618;2023-07-31T12:58:22;2.03;;;1.10;;
15354;SDS011;7777;52.254;9.618;2023-07-31T13:00:48;3.47;;;1.10;;
15354;SDS011;7777;52.254;9.618;2023-07-31T13:03:13;1.53;;;1.23;;
15354;SDS011;7777;52.254;9.618;2023-07-31T13:05:39;1.37;;;0.90;;
15354;SDS011;7777;52.254;9.618;2023-07-31T13:08:05;1.83;;;0.97;;
15354;SDS011;7777;52.254;9.618;2023-07-31T13:10:31;2.07;;;1.00;;
15354;SDS011;7777;52.254;9.618;2023-07-31T13:12:56;1.90;;;1.20;;
15354;SDS011;7777;52.254;9.618;2023-07-31T13:15:22;1.20;;;1.00;;
15354;SDS011;7777;52.254;9.618;2023-07-31T13:17:48;1.73;;;1.13;;
15354;SDS011;7777;52.254;9.618;2023-07-31T13:20:14;1.50;;;0.90;;
15354;SDS011;7777;52.254;9.618;2023-07-31T13:22:40;1.10;;;0.90;;
15354;SDS011;7777;52.254;9.618;2023-07-31T13:25:06;1.90;;;1.30;;
15354;SDS011;7777;52.254;9.618;2023-07-31T13:27:32;1.70;;;1.20;;
15354;SDS011;7777;52.254;9.618;2023-07-31T13:29:59;0.90;;;0.80;;
15354;SDS011;7777;52.254;9.618;2023-07-31T13:32:24;2.47;;;1.13;;
15354;SDS011;7777;52.254;9.618;2023-07-31T13:34:51;2.13;;;1.00;;
15354;SDS011;7777;52.254;9.618;2023-07-31T13:37:17;2.50;;;1.13;;
15354;SDS011;7777;52.254;9.618;2023-07-31T13:39:42;3.53;;;0.90;;
15354;SDS011;7777;52.254;9.618;2023-07-31T13:42:09;1.73;;;0.67;;
15354;SDS011;7777;52.254;9.618;2023-07-31T13:44:40;1.80;;;1.10;;
15354;SDS011;7777;52.254;9.618;2023-07-31T13:47:07;0.83;;;0.50;;
15354;SDS011;7777;52.254;9.618;2023-07-31T13:49:33;1.60;;;0.90;;
15354;SDS011;7777;52.254;9.618;2023-07-31T13:52:00;1.00;;;0.80;;
15354;SDS011;7777;52.254;9.618;2023-07-31T13:54:26;0.70;;;0.70;;
15354;SDS011;7777;52.254;9.618;2023-07-31T13:56:52;2.43;;;0.90;;
15354;SDS011;7777;52.254;9.618;2023-07-31T13:59:18;0.63;;;0.63;;
15354;SDS011;7777;52.254;9.618;2023-07-31T14:01:45;2.20;;;0.70;;
15354;SDS011;7777;52.254;9.618;2023-07-31T14:04:11;2.43;;;0.83;;
15354;SDS011;7777;52.254;9.618;2023-07-31T14:06:37;1.13;;;0.70;;
15354;SDS011;7777;52.254;9.618;2023-07-31T14:09:03;0.97;;;0.80;;
15354;SDS011;7777;52.254;9.618;2023-07-31T14:11:33;2.60;;;0.90;;
15354;SDS011;7777;52.254;9.618;2023-07-31T14:13:59;5.33;;;1.20;;
15354;SDS011;7777;52.254;9.618;2023-07-31T14:16:26;1.10;;;0.70;;
15354;SDS011;7777;52.254;9.618;2023-07-31T14:18:52;1.70;;;1.07;;
15354;SDS011;7777;52.254;9.618;2023-07-31T14:21:18;1.27;;;1.00;;
15354;SDS011;7777;52.254;9.618;2023-07-31T14:23:44;2.87;;;1.27;;
15354;SDS011;7777;52.254;9.618;2023-07-31T14:26:11;3.63;;;1.83;;
15354;SDS011;7777;52.254;9.618;2023-07-31T14:28:36;3.43;;;1.67;;
15354;SDS011;7777;52.254;9.618;2023-07-31T14:31:03;2.20;;;1.60;;
15354;SDS011;7777;52.254;9.618;2023-07-31T14:33:28;2.93;;;2.00;;
15354;SDS011;7777;52.254;9.618;2023-07-31T14:35:54;5.23;;;2.27;;
15354;SDS011;7777;52.254;9.618;2023-07-31T14:38:20;2.50;;;1.70;;
15354;SDS011;7777;52.254;9.618;2023-07-31T14:40:46;4.27;;;2.40;;
15354;SDS011;7777;52.254;9.618;2023-07-31T14:43:11;5.47;;;2.10;;
15354;SDS011;7777;52.254;9.618;2023-07-31T14:45:37;2.70;;;1.63;;
15354;SDS011;7777;52.254;9.618;2023-07-31T14:48:03;2.80;;;1.87;;
15354;SDS011;7777;52.254;9.618;2023-07-31T14:50:29;4.13;;;2.10;;
15354;SDS011;7777;52.254;9.618;2023-07-31T14:52:55;1.83;;;1.60;;
15354;SDS011;7777;52.254;9.618;2023-07-31T14:55:21;2.30;;;1.70;;
15354;SDS011;7777;52.254;9.618;2023-07-31T14:57:46;2.70;;;1.87;;
15354;SDS011;7777;52.254;9.618;2023-07-31T15:00:12;4.10;;;1.93;;
15354;SDS011;7777;52.254;9.618;2023-07-31T15:02:39;3.00;;;2.00;;
15354;SDS011;7777;52.254;9.618;2023-07-31T15:05:05;2.80;;;1.90;;
15354;SDS011;7777;52.254;9.618;2023-07-31T15:07:32;2.13;;;1.90;;
15354;SDS011;7777;52.254;9.618;2023-07-31T15:09:59;2.60;;;1.40;;
15354;SDS011;7777;52.254;9.618;2023-07-31T15:12:26;3.00;;;2.10;;
15354;SDS011;7777;52.254;9.618;2023-07-31T15:14:52;5.47;;;2.10;;
15354;SDS011;7777;52.254;9.618;2023-07-31T15:17:18;3.80;;;2.43;;
15354;SDS011;7777;52.254;9.618;2023-07-31T15:19:44;2.70;;;1.77;;